Time;durP1;ratioP1;P1;durP2;ratioP2;P2;SDS_P1;SDS_P2;PMS_P1;PMS_P2;Temp;Humidity;BMP_temperature;BMP_pressure;BME280_temperature;BME280_humidity;BME280_pressure;Samples;Min_cycle;Max_cycle;Signal;HPM_P1;HPM_P2
2022/10/07 00:01:33;;;;;;;10.68;6.05;;;;;;;15.89;66.87;100397.56;5087484;28;20048;-72
2022/10/07 00:04:00;;;;;;;7.40;5.70;;;;;;;15.87;66.70;100402.13;5087348;28;20304;-72
2022/10/07 00:06:27;;;;;;;7.78;6.22;;;;;;;15.85;66.74;100403.19;5087684;28;20048;-73
2022/10/07 00:08:54;;;;;;;9.90;7.82;;;;;;;15.84;66.74;100401.47;5087683;28;20048;-73
2022/10/07 00:11:23;;;;;;;10.55;6.40;;;;;;;15.79;66.78;100398.19;5086885;28;20059;-72
2022/10/07 00:13:51;;;;;;;8.02;5.47;;;;;;;15.76;66.66;100398.38;5087532;28;20117;-72
2022/10/07 00:16:23;;;;;;;10.93;5.93;;;;;;;15.75;66.68;100394.00;5087468;28;20059;-72
2022/10/07 00:18:51;;;;;;;10.93;6.22;;;;;;;15.75;66.80;100388.66;5087469;28;20059;-73
2022/10/07 00:21:19;;;;;;;8.43;6.47;;;;;;;15.72;66.89;100389.69;5087023;28;20212;-73
2022/10/07 00:23:47;;;;;;;11.70;7.43;;;;;;;15.71;67.00;100396.00;5087270;28;20067;-73
2022/10/07 00:26:16;;;;;;;15.23;7.03;;;;;;;15.67;66.93;100389.97;5086986;28;20311;-73
2022/10/07 00:28:43;;;;;;;9.48;6.65;;;;;;;15.66;67.02;100384.72;5087246;28;20056;-73
2022/10/07 00:31:13;;;;;;;7.30;5.97;;;;;;;15.65;67.08;100385.66;5087141;28;20056;-72
2022/10/07 00:33:40;;;;;;;9.30;6.63;;;;;;;15.51;67.42;100361.56;5087114;28;20060;-73
2022/10/07 00:36:11;;;;;;;9.10;6.60;;;;;;;14.52;67.32;100192.03;5087111;28;20067;-73
2022/10/07 00:38:37;;;;;;;10.32;7.57;;;;;;;15.59;67.48;100370.84;5087042;28;20051;-73
2022/10/07 00:41:04;;;;;;;9.20;6.97;;;;;;;15.58;67.69;100376.28;5086977;28;20048;-73
2022/10/07 00:43:32;;;;;;;11.05;7.20;;;;;;;15.54;67.88;100369.38;5086647;28;20319;-72
2022/10/07 00:46:03;;;;;;;8.25;6.95;;;;;;;15.52;67.38;100364.13;5086786;28;20048;-72
2022/10/07 00:48:32;;;;;;;8.40;6.20;;;;;;;15.49;67.37;100369.66;5086871;28;20059;-72
2022/10/07 00:51:01;;;;;;;9.25;6.78;;;;;;;15.46;67.42;100371.66;5086502;28;20327;-72
2022/10/07 00:53:32;;;;;;;6.97;5.63;;;;;;;15.45;67.60;100368.13;5086732;28;20147;-72
2022/10/07 00:56:01;;;;;;;8.18;6.50;;;;;;;15.45;67.49;100356.56;5085945;28;20053;-72
2022/10/07 00:58:30;;;;;;;8.45;5.85;;;;;;;15.27;67.09;100337.16;5086327;28;20048;-72
2022/10/07 01:00:57;;;;;;;8.02;6.75;;;;;;;15.44;67.77;100353.03;5086593;28;20052;-72
2022/10/07 01:03:24;;;;;;;8.82;6.13;;;;;;;15.43;67.49;100355.81;5086532;28;20052;-72
2022/10/07 01:05:51;;;;;;;9.73;6.32;;;;;;;15.39;67.67;100353.31;5086133;28;20052;-72
2022/10/07 01:08:20;;;;;;;7.63;6.70;;;;;;;15.34;67.93;100347.38;5086445;28;20048;-72
2022/10/07 01:10:55;;;;;;;10.38;7.20;;;;;;;15.34;67.99;100338.50;5086435;28;20056;-72
2022/10/07 01:13:30;;;;;;;8.65;7.28;;;;;;;15.33;68.00;100342.13;5086410;28;20068;-71
2022/10/07 01:16:04;;;;;;;11.10;7.32;;;;;;;15.17;67.89;100311.94;5086385;28;20120;-72
2022/10/07 01:18:38;;;;;;;13.30;8.03;;;;;;;15.23;68.47;100340.97;5086280;28;20056;-71
2022/10/07 01:21:11;;;;;;;8.50;6.70;;;;;;;15.18;68.08;100343.03;5086269;28;20048;-71
2022/10/07 01:23:52;;;;;;;9.73;6.57;;;;;;;15.16;68.47;100334.25;5086186;28;20056;-71
2022/10/07 01:26:38;;;;;;;7.75;6.15;;;;;;;15.17;68.31;100333.31;5085860;28;20213;-71
2022/10/07 01:29:11;;;;;;;9.75;6.85;;;;;;;15.16;68.10;100326.25;5085869;28;20304;-71
2022/10/07 01:31:44;;;;;;;7.97;6.50;;;;;;;15.14;68.36;100328.16;5086147;28;20048;-72
2022/10/07 01:34:13;;;;;;;9.00;6.82;;;;;;;15.13;67.81;100332.63;5086044;28;20048;-71
2022/10/07 01:36:42;;;;;;;7.95;6.72;;;;;;;15.12;68.00;100324.72;5086043;28;20045;-72
2022/10/07 01:39:17;;;;;;;7.85;6.55;;;;;;;15.09;68.18;100317.75;5085744;28;20296;-71
2022/10/07 01:41:45;;;;;;;9.38;6.57;;;;;;;15.08;68.53;100329.38;5085946;28;20048;-72
2022/10/07 01:44:13;;;;;;;8.85;5.63;;;;;;;15.06;68.01;100324.13;5085505;28;20224;-72
2022/10/07 01:46:40;;;;;;;7.50;6.32;;;;;;;15.04;67.85;100319.81;5085387;28;20060;-71
2022/10/07 01:49:07;;;;;;;8.50;6.03;;;;;;;14.60;68.09;100269.88;5085865;28;20060;-72
2022/10/07 01:51:39;;;;;;;9.13;6.20;;;;;;;14.82;68.63;100293.50;5085836;28;20052;-72
2022/10/07 01:54:26;;;;;;;8.88;5.57;;;;;;;14.89;68.24;100318.03;5085867;28;20106;-71
2022/10/07 01:57:09;;;;;;;8.77;6.25;;;;;;;14.89;68.49;100312.69;5085268;28;20048;-71
2022/10/07 02:00:01;;;;;;;7.45;5.53;;;;;;;14.87;68.68;100312.78;5085782;28;20048;-71
2022/10/07 02:02:40;;;;;;;9.07;6.18;;;;;;;14.85;68.49;100308.47;5085764;28;20068;-72
2022/10/07 02:05:16;;;;;;;6.93;5.20;;;;;;;14.82;68.51;100306.84;5085389;28;20308;-71
2022/10/07 02:07:55;;;;;;;6.57;4.50;;;;;;;14.84;68.43;100309.44;5085457;28;20049;-72
2022/10/07 02:10:30;;;;;;;6.38;4.50;;;;;;;14.83;68.39;100305.03;5085695;28;20069;-71
2022/10/07 02:13:04;;;;;;;7.35;4.88;;;;;;;14.80;68.48;100306.09;5085381;28;20351;-71
2022/10/07 02:15:35;;;;;;;7.18;4.80;;;;;;;14.79;68.03;100314.19;5085658;28;20044;-72
2022/10/07 02:18:07;;;;;;;5.65;4.35;;;;;;;14.75;68.28;100305.47;5085586;28;20215;-72
2022/10/07 02:20:37;;;;;;;9.15;4.82;;;;;;;14.73;68.52;100318.06;5085559;28;20048;-72
2022/10/07 02:23:08;;;;;;;9.45;4.97;;;;;;;14.73;68.23;100304.72;5085528;28;20056;-72
2022/10/07 02:25:39;;;;;;;8.52;5.50;;;;;;;14.70;68.30;100313.75;5085463;28;20048;-72
2022/10/07 02:28:10;;;;;;;6.15;4.45;;;;;;;14.69;67.96;100300.50;5085492;28;20058;-71
2022/10/07 02:30:37;;;;;;;7.78;4.70;;;;;;;14.65;68.52;100296.28;5085768;28;20058;-72
2022/10/07 02:33:07;;;;;;;6.63;4.63;;;;;;;14.64;68.00;100295.44;5085445;28;20059;-72
2022/10/07 02:35:41;;;;;;;6.40;4.97;;;;;;;14.63;68.04;100292.84;5085439;28;20177;-72
2022/10/07 02:38:13;;;;;;;8.70;5.60;;;;;;;14.59;68.60;100294.78;5085454;28;20048;-72
2022/10/07 02:40:44;;;;;;;5.75;4.25;;;;;;;14.55;68.60;100290.56;5085429;28;20062;-72
2022/10/07 02:43:22;;;;;;;8.30;5.63;;;;;;;14.53;68.54;100295.09;5085356;28;20056;-72
2022/10/07 02:45:55;;;;;;;7.22;4.50;;;;;;;14.52;68.46;100297.88;5084982;28;20212;-71
2022/10/07 02:48:26;;;;;;;6.28;4.80;;;;;;;14.51;68.57;100293.47;5085024;28;20048;-72
2022/10/07 02:50:57;;;;;;;6.57;5.28;;;;;;;14.52;68.65;100292.53;5085263;28;20045;-72
2022/10/07 02:53:27;;;;;;;9.90;5.75;;;;;;;14.50;68.89;100292.63;5085556;28;20118;-71
2022/10/07 02:55:55;;;;;;;8.63;5.65;;;;;;;14.47;68.69;100287.44;5084876;28;20052;-72
2022/10/07 02:58:25;;;;;;;7.65;5.78;;;;;;;14.46;68.79;100283.06;5085169;28;20059;-72
2022/10/07 03:00:57;;;;;;;9.77;6.18;;;;;;;14.43;69.44;100284.09;5085156;28;20079;-72
2022/10/07 03:03:24;;;;;;;9.60;6.75;;;;;;;14.41;69.48;100286.00;5085188;28;20091;-72
2022/10/07 03:05:52;;;;;;;9.60;7.07;;;;;;;14.44;69.39;100290.28;5085074;28;20045;-72
2022/10/07 03:08:20;;;;;;;8.75;7.85;;;;;;;14.40;69.68;100278.94;5085115;28;20059;-72
2022/10/07 03:10:47;;;;;;;9.60;7.90;;;;;;;14.40;70.06;100288.75;5085116;28;20048;-71
2022/10/07 03:13:14;;;;;;;9.30;7.38;;;;;;;14.42;70.12;100277.03;5085027;28;20048;-71
2022/10/07 03:15:42;;;;;;;9.43;8.40;;;;;;;14.40;70.34;100288.75;5085033;28;20063;-71
2022/10/07 03:18:24;;;;;;;10.68;8.40;;;;;;;14.39;70.51;100273.69;5084989;28;20056;-71
2022/10/07 03:20:52;;;;;;;11.45;8.00;;;;;;;14.36;70.06;100276.53;5087229;28;20048;-71
2022/10/07 03:23:19;;;;;;;14.60;10.10;;;;;;;14.36;70.71;100272.06;5088755;28;20056;-71
2022/10/07 03:25:49;;;;;;;10.90;9.07;;;;;;;14.38;70.63;100286.16;5088407;28;20204;-71
2022/10/07 03:28:16;;;;;;;14.27;9.18;;;;;;;14.38;70.67;100274.63;5087579;28;20199;-71
2022/10/07 03:30:44;;;;;;;12.18;8.88;;;;;;;14.39;70.85;100279.03;5088344;28;20048;-72
2022/10/07 03:33:10;;;;;;;9.90;8.68;;;;;;;14.40;70.90;100278.06;5088328;28;20059;-71
2022/10/07 03:35:37;;;;;;;18.77;9.57;;;;;;;14.39;70.38;100274.56;5088275;28;20044;-71
2022/10/07 03:38:05;;;;;;;9.85;8.85;;;;;;;14.36;70.49;100272.06;5088152;28;20102;-72
2022/10/07 03:40:32;;;;;;;9.20;7.38;;;;;;;14.35;70.56;100273.00;5088147;28;20052;-71
2022/10/07 03:42:58;;;;;;;11.18;8.10;;;;;;;14.35;70.75;100274.81;5088141;28;20048;-71
2022/10/07 03:45:25;;;;;;;9.55;6.70;;;;;;;14.35;70.66;100270.34;5088040;28;20048;-72
2022/10/07 03:47:53;;;;;;;9.85;6.95;;;;;;;14.37;70.30;100267.59;5088065;28;20048;-71
2022/10/07 03:50:20;;;;;;;7.18;6.28;;;;;;;14.32;70.10;100270.50;5088018;28;20056;-71
2022/10/07 03:52:47;;;;;;;7.28;6.47;;;;;;;14.30;70.23;100282.22;5087995;28;20048;-71
2022/10/07 03:55:15;;;;;;;8.95;6.88;;;;;;;14.28;70.32;100268.97;5087699;28;20045;-71
2022/10/07 03:57:51;;;;;;;7.30;6.53;;;;;;;14.26;70.45;100273.53;5087607;28;20308;-71
2022/10/07 04:00:19;;;;;;;7.60;6.68;;;;;;;14.21;70.24;100274.72;5087888;28;20048;-72
2022/10/07 04:02:47;;;;;;;8.38;7.47;;;;;;;14.23;70.38;100272.84;5087498;28;20334;-73
2022/10/07 04:05:15;;;;;;;9.30;7.05;;;;;;;14.21;70.85;100270.25;5087621;28;20044;-72
